createdAt,value
2022-08-30T00:00:12.540Z,1.25
2022-08-30T00:02:39.149Z,1.20
2022-08-30T00:05:06.036Z,1.13
2022-08-30T00:07:32.679Z,1.50
2022-08-30T00:09:59.238Z,1.30
2022-08-30T00:12:26.483Z,1.50
2022-08-30T00:14:53.048Z,1.75
2022-08-30T00:17:19.575Z,1.23
2022-08-30T00:19:46.112Z,1.75
2022-08-30T00:22:13.264Z,1.60
2022-08-30T00:24:39.732Z,1.63
2022-08-30T00:27:06.212Z,1.50
2022-08-30T00:29:32.690Z,1.45
2022-08-30T00:31:59.415Z,1.90
2022-08-30T00:34:26.026Z,1.63
2022-08-30T00:36:52.503Z,1.45
2022-08-30T00:39:19.589Z,1.98
2022-08-30T00:41:46.747Z,1.52
2022-08-30T00:44:13.747Z,1.50
2022-08-30T00:46:40.348Z,1.80
2022-08-30T00:49:10.844Z,2.22
2022-08-30T00:51:37.922Z,1.63
2022-08-30T00:54:05.383Z,1.80
2022-08-30T00:56:33.934Z,1.60
2022-08-30T00:59:02.797Z,1.65
2022-08-30T01:01:32.005Z,1.73
2022-08-30T01:04:01.543Z,2.30
2022-08-30T01:06:32.645Z,1.58
2022-08-30T01:09:00.667Z,1.67
2022-08-30T01:11:28.175Z,1.90
2022-08-30T01:13:56.165Z,1.85
2022-08-30T01:16:25.332Z,1.63
2022-08-30T01:18:57.420Z,1.90
2022-08-30T01:21:39.805Z,1.73
2022-08-30T01:24:08.539Z,2.65
2022-08-30T01:26:36.513Z,2.08
2022-08-30T01:29:07.752Z,2.05
2022-08-30T01:31:36.970Z,1.83
2022-08-30T01:34:07.550Z,2.35
2022-08-30T01:36:44.608Z,2.00
2022-08-30T01:39:14.496Z,1.85
2022-08-30T01:41:41.640Z,1.92
2022-08-30T01:44:10.958Z,1.90
2022-08-30T01:46:47.072Z,2.10
2022-08-30T01:49:16.956Z,2.33
2022-08-30T01:51:45.873Z,2.25
2022-08-30T01:54:12.767Z,1.70
2022-08-30T01:56:39.773Z,2.33
2022-08-30T01:59:06.402Z,1.80
2022-08-30T02:01:37.139Z,2.00
2022-08-30T02:04:04.483Z,2.40
2022-08-30T02:06:31.479Z,2.50
2022-08-30T02:08:58.453Z,2.05
2022-08-30T02:11:25.318Z,2.33
2022-08-30T02:13:51.837Z,2.97
2022-08-30T02:16:24.469Z,1.90
2022-08-30T02:18:53.206Z,2.15
2022-08-30T02:21:20.633Z,2.83
2022-08-30T02:23:47.149Z,2.05
2022-08-30T02:26:14.219Z,2.90
2022-08-30T02:28:42.791Z,1.73
2022-08-30T02:31:20.476Z,2.35
2022-08-30T02:33:49.093Z,2.00
2022-08-30T02:36:15.850Z,2.05
2022-08-30T02:38:42.367Z,2.83
2022-08-30T02:41:08.908Z,2.33
2022-08-30T02:43:35.406Z,2.70
2022-08-30T02:46:01.970Z,2.10
2022-08-30T02:48:28.559Z,2.13
2022-08-30T02:50:55.113Z,1.98
2022-08-30T02:53:22.603Z,3.78
2022-08-30T02:55:50.080Z,3.08
2022-08-30T02:58:16.638Z,2.20
2022-08-30T03:00:43.430Z,2.45
2022-08-30T03:03:10.794Z,2.42
2022-08-30T03:05:37.919Z,2.20
2022-08-30T03:08:07.260Z,2.15
2022-08-30T03:10:33.886Z,2.17
2022-08-30T03:13:00.892Z,2.85
2022-08-30T03:15:27.556Z,2.92
2022-08-30T03:17:55.908Z,2.80
2022-08-30T03:20:23.938Z,3.65
2022-08-30T03:22:50.963Z,2.78
2022-08-30T03:25:18.099Z,2.88
2022-08-30T03:27:44.580Z,2.47
2022-08-30T03:30:12.269Z,2.33
2022-08-30T03:32:39.481Z,3.30
2022-08-30T03:35:07.977Z,2.65
2022-08-30T03:37:35.389Z,2.85
2022-08-30T03:40:03.646Z,2.88
2022-08-30T03:42:31.514Z,2.97
2022-08-30T03:44:58.121Z,2.92
2022-08-30T03:47:24.690Z,3.50
2022-08-30T03:49:51.165Z,2.80
2022-08-30T03:52:17.680Z,2.50
2022-08-30T03:54:45.261Z,2.80
2022-08-30T03:57:20.337Z,2.95
2022-08-30T03:59:51.761Z,2.97
2022-08-30T04:02:18.401Z,2.60
2022-08-30T04:04:44.963Z,2.88
2022-08-30T04:07:11.684Z,2.97
2022-08-30T04:09:38.298Z,2.85
2022-08-30T04:12:04.981Z,2.88
2022-08-30T04:14:31.565Z,3.22
2022-08-30T04:16:58.215Z,3.35
2022-08-30T04:19:24.929Z,2.88
2022-08-30T04:21:51.482Z,2.97
2022-08-30T04:24:18.025Z,3.03
2022-08-30T04:26:44.491Z,3.28
2022-08-30T04:29:12.309Z,3.08
2022-08-30T04:31:38.848Z,3.33
2022-08-30T04:34:05.454Z,2.92
2022-08-30T04:36:31.952Z,2.97
2022-08-30T04:38:58.501Z,2.92
2022-08-30T04:41:25.201Z,3.20
2022-08-30T04:43:51.868Z,3.63
2022-08-30T04:46:19.768Z,3.72
2022-08-30T04:48:47.311Z,2.58
2022-08-30T04:51:17.358Z,3.22
2022-08-30T04:53:45.114Z,3.40
2022-08-30T04:56:18.098Z,3.42
2022-08-30T04:58:46.977Z,2.65
2022-08-30T05:01:20.560Z,3.17
2022-08-30T05:03:51.898Z,3.17
2022-08-30T05:06:19.162Z,3.17
2022-08-30T05:08:46.892Z,2.72
2022-08-30T05:11:14.814Z,2.60
2022-08-30T05:13:41.332Z,2.60
2022-08-30T05:16:08.754Z,3.13
2022-08-30T05:18:36.655Z,3.17
2022-08-30T05:21:04.254Z,3.17
2022-08-30T05:23:31.123Z,2.80
2022-08-30T05:25:57.688Z,3.42
2022-08-30T05:28:26.317Z,3.53
2022-08-30T05:30:53.158Z,2.55
2022-08-30T05:33:19.706Z,2.85
2022-08-30T05:35:46.239Z,2.88
2022-08-30T05:38:12.800Z,2.97
2022-08-30T05:40:43.570Z,3.67
2022-08-30T05:43:11.307Z,2.63
2022-08-30T05:45:38.433Z,3.42
2022-08-30T05:48:05.399Z,2.97
2022-08-30T05:50:31.932Z,3.20
2022-08-30T05:52:58.447Z,3.22
2022-08-30T05:55:25.062Z,2.45
2022-08-30T05:57:51.708Z,2.92
2022-08-30T06:00:19.215Z,2.90
2022-08-30T06:02:46.030Z,2.63
2022-08-30T06:05:14.332Z,2.42
2022-08-30T06:07:41.548Z,2.35
2022-08-30T06:10:08.399Z,1.90
2022-08-30T06:12:34.961Z,2.35
2022-08-30T06:15:01.736Z,1.67
2022-08-30T06:17:28.241Z,1.75
2022-08-30T06:19:54.749Z,1.98
2022-08-30T06:22:21.244Z,1.95
2022-08-30T06:24:57.441Z,2.30
2022-08-30T06:27:24.609Z,2.10
2022-08-30T06:29:52.326Z,1.80
2022-08-30T06:32:19.162Z,1.67
2022-08-30T06:34:45.697Z,1.60
2022-08-30T06:37:12.291Z,1.70
2022-08-30T06:39:57.568Z,1.95
2022-08-30T06:42:24.562Z,1.60
2022-08-30T06:44:51.522Z,1.48
2022-08-30T06:47:18.271Z,1.42
2022-08-30T06:49:44.806Z,1.45
2022-08-30T06:52:11.666Z,1.90
2022-08-30T06:54:38.748Z,1.48
2022-08-30T06:57:05.406Z,1.40
2022-08-30T06:59:32.455Z,1.23
2022-08-30T07:01:59.112Z,1.42
2022-08-30T07:04:25.976Z,1.30
2022-08-30T07:06:53.339Z,1.42
2022-08-30T07:09:22.888Z,2.13
2022-08-30T07:11:50.243Z,1.10
2022-08-30T07:14:16.792Z,1.10
2022-08-30T07:16:44.537Z,0.90
2022-08-30T07:19:20.257Z,1.00
2022-08-30T07:21:49.289Z,1.30
2022-08-30T07:24:17.068Z,1.23
2022-08-30T07:26:48.916Z,1.00
2022-08-30T07:29:17.401Z,0.90
2022-08-30T07:31:44.456Z,1.10
2022-08-30T07:34:11.037Z,1.00
2022-08-30T07:36:38.613Z,0.90
2022-08-30T07:39:06.152Z,1.00
2022-08-30T07:41:36.362Z,0.90
2022-08-30T07:44:03.358Z,0.82
2022-08-30T07:46:30.138Z,0.90
2022-08-30T07:48:58.774Z,0.50
2022-08-30T07:51:27.531Z,1.45
2022-08-30T07:53:55.065Z,0.50
2022-08-30T07:56:22.349Z,0.63
2022-08-30T07:58:49.093Z,0.47
2022-08-30T08:01:17.778Z,0.90
2022-08-30T08:03:44.742Z,0.60
2022-08-30T08:06:13.818Z,0.52
2022-08-30T08:08:41.554Z,0.70
2022-08-30T08:11:17.483Z,0.70
2022-08-30T08:13:52.738Z,0.55
2022-08-30T08:16:24.289Z,0.90
2022-08-30T08:18:52.547Z,0.60
2022-08-30T08:21:19.873Z,0.77
2022-08-30T08:23:46.935Z,1.00
2022-08-30T08:26:13.517Z,0.68
2022-08-30T08:28:41.720Z,0.57
2022-08-30T08:31:16.755Z,1.15
2022-08-30T08:33:43.576Z,0.82
2022-08-30T08:36:10.515Z,0.50
2022-08-30T08:38:37.862Z,0.88
2022-08-30T08:41:07.177Z,0.70
2022-08-30T08:43:35.231Z,0.75
2022-08-30T08:46:10.394Z,0.57
2022-08-30T08:49:05.246Z,0.88
2022-08-30T08:51:53.821Z,0.60
2022-08-30T08:54:36.764Z,0.60
2022-08-30T08:57:03.450Z,0.60
2022-08-30T08:59:30.035Z,0.68
2022-08-30T09:02:03.077Z,0.80
2022-08-30T09:04:37.722Z,0.80
2022-08-30T09:07:26.291Z,0.75
2022-08-30T09:09:53.042Z,0.70
2022-08-30T09:12:21.002Z,0.57
2022-08-30T09:14:54.510Z,0.70
2022-08-30T09:19:52.073Z,0.77
2022-08-30T09:22:26.637Z,0.50
2022-08-30T09:25:01.314Z,0.88
2022-08-30T09:27:32.620Z,0.80
2022-08-30T09:30:04.033Z,1.98
2022-08-30T09:32:40.335Z,1.27
2022-08-30T09:35:13.432Z,0.75
2022-08-30T09:37:47.696Z,0.65
2022-08-30T09:40:22.620Z,0.90
2022-08-30T09:43:25.612Z,0.60
2022-08-30T09:46:01.240Z,0.70
2022-08-30T09:48:45.362Z,0.77
2022-08-30T09:51:12.007Z,0.60
2022-08-30T09:54:17.313Z,0.73
2022-08-30T09:57:03.709Z,1.05
2022-08-30T09:59:53.903Z,0.73
2022-08-30T10:02:48.274Z,0.50
2022-08-30T10:05:52.034Z,0.73
2022-08-30T10:08:35.619Z,0.85
2022-08-30T10:11:07.743Z,0.50
2022-08-30T10:14:01.610Z,0.75
2022-08-30T10:16:49.669Z,0.77
2022-08-30T10:19:25.316Z,1.00
2022-08-30T10:22:36.889Z,0.55
2022-08-30T10:25:21.350Z,0.68
2022-08-30T10:27:56.427Z,0.80
2022-08-30T10:30:23.451Z,1.08
2022-08-30T10:33:01.659Z,0.50
2022-08-30T10:35:38.649Z,0.60
2022-08-30T10:38:23.698Z,0.57
2022-08-30T10:41:15.393Z,0.45
2022-08-30T10:43:54.605Z,0.70
2022-08-30T10:46:27.231Z,0.60
2022-08-30T10:48:56.390Z,0.73
2022-08-30T10:51:59.079Z,1.30
2022-08-30T10:54:38.979Z,0.60
2022-08-30T10:57:05.566Z,0.57
2022-08-30T10:59:33.588Z,0.70
2022-08-30T11:02:03.542Z,0.60
2022-08-30T11:04:52.952Z,0.60
2022-08-30T11:07:35.776Z,0.65
2022-08-30T11:10:11.550Z,0.60
2022-08-30T11:12:43.875Z,0.52
2022-08-30T11:15:21.547Z,0.40
2022-08-30T11:18:04.509Z,0.80
2022-08-30T11:20:37.298Z,0.52
2022-08-30T11:23:25.118Z,0.50
2022-08-30T11:26:01.739Z,0.68
2022-08-30T11:28:35.399Z,0.52
2022-08-30T11:31:07.892Z,0.63
2022-08-30T11:33:51.612Z,0.57
2022-08-30T11:36:46.083Z,0.60
2022-08-30T11:42:24.457Z,0.70
2022-08-30T11:45:25.461Z,0.85
2022-08-30T11:48:00.662Z,0.55
2022-08-30T11:50:49.943Z,0.60
2022-08-30T11:53:42.287Z,0.68
2022-08-30T11:56:46.098Z,0.70
2022-08-30T11:59:51.722Z,0.70
2022-08-30T12:02:46.802Z,0.73
2022-08-30T12:05:45.769Z,0.68
2022-08-30T12:08:20.431Z,1.00
2022-08-30T12:10:59.449Z,0.77
2022-08-30T12:13:43.011Z,0.50
2022-08-30T12:16:14.588Z,0.85
2022-08-30T12:18:47.841Z,0.85
2022-08-30T12:21:28.184Z,0.60
2022-08-30T12:23:58.882Z,0.85
2022-08-30T12:26:51.467Z,1.23
2022-08-30T12:29:28.592Z,0.80
2022-08-30T12:32:15.615Z,0.70
2022-08-30T12:34:42.330Z,0.80
2022-08-30T12:37:23.246Z,0.65
2022-08-30T12:40:02.026Z,0.50
2022-08-30T12:42:32.761Z,0.80
2022-08-30T12:45:04.682Z,0.52
2022-08-30T12:47:44.847Z,0.80
2022-08-30T12:50:17.058Z,0.73
2022-08-30T12:52:46.442Z,0.70
2022-08-30T12:55:17.257Z,0.60
2022-08-30T12:58:04.779Z,0.50
2022-08-30T13:00:39.732Z,0.70
2022-08-30T13:03:30.349Z,0.65
2022-08-30T13:05:57.553Z,0.50
2022-08-30T13:08:45.587Z,0.60
2022-08-30T13:11:26.088Z,0.50
2022-08-30T13:14:14.680Z,0.50
2022-08-30T13:16:44.665Z,0.75
2022-08-30T13:19:31.675Z,0.60
2022-08-30T13:21:59.413Z,0.50
2022-08-30T13:24:26.723Z,0.68
2022-08-30T13:27:02.027Z,0.50
2022-08-30T13:29:29.255Z,0.57
2022-08-30T13:31:56.279Z,0.40
2022-08-30T13:34:23.551Z,0.68
2022-08-30T13:36:54.180Z,0.60
2022-08-30T13:39:21.696Z,0.68
2022-08-30T13:41:48.930Z,0.98
2022-08-30T13:44:15.610Z,0.47
2022-08-30T13:46:53.056Z,0.93
2022-08-30T13:52:22.192Z,0.65
2022-08-30T13:54:51.643Z,0.88
2022-08-30T14:00:12.364Z,0.70
2022-08-30T14:02:45.328Z,1.23
2022-08-30T14:05:47.138Z,0.52
2022-08-30T14:08:03.523Z,0.80
2022-08-30T14:10:32.283Z,0.50
2022-08-30T14:13:07.974Z,0.50
2022-08-30T14:15:38.749Z,0.80
2022-08-30T14:18:06.369Z,0.60
2022-08-30T14:20:38.604Z,0.70
2022-08-30T14:23:09.907Z,0.45
2022-08-30T14:25:37.661Z,0.63
2022-08-30T14:28:07.269Z,0.60
2022-08-30T14:30:33.785Z,0.60
2022-08-30T14:33:00.657Z,0.60
2022-08-30T14:35:27.271Z,0.38
2022-08-30T14:37:54.107Z,0.65
2022-08-30T14:40:20.790Z,0.60
2022-08-30T14:42:47.388Z,0.70
2022-08-30T14:45:14.082Z,0.60
2022-08-30T14:47:40.622Z,0.70
2022-08-30T14:50:07.717Z,0.63
2022-08-30T14:52:34.440Z,0.50
2022-08-30T14:55:09.057Z,0.82
2022-08-30T14:57:38.200Z,0.70
2022-08-30T15:00:08.806Z,0.80
2022-08-30T15:02:35.358Z,0.60
2022-08-30T15:05:02.017Z,0.63
2022-08-30T15:07:28.613Z,0.55
2022-08-30T15:09:55.177Z,0.50
2022-08-30T15:12:21.756Z,1.90
2022-08-30T15:14:48.619Z,0.60
2022-08-30T15:17:17.891Z,0.50
2022-08-30T15:19:44.697Z,0.77
2022-08-30T15:22:11.377Z,0.80
2022-08-30T15:24:38.020Z,0.63
2022-08-30T15:27:04.917Z,0.93
2022-08-30T15:29:32.816Z,0.47
2022-08-30T15:32:00.405Z,0.50
2022-08-30T15:34:28.334Z,0.70
2022-08-30T15:36:55.916Z,0.80
2022-08-30T15:39:23.046Z,0.60
2022-08-30T15:41:54.664Z,0.55
2022-08-30T15:44:23.839Z,0.70
2022-08-30T15:46:50.489Z,0.55
2022-08-30T15:49:20.410Z,0.60
2022-08-30T15:51:51.671Z,0.55
2022-08-30T15:54:22.891Z,0.50
2022-08-30T15:56:49.445Z,0.40
2022-08-30T15:59:17.556Z,0.60
2022-08-30T16:01:45.671Z,1.02
2022-08-30T16:04:17.137Z,0.43
2022-08-30T16:06:45.522Z,0.75
2022-08-30T16:09:12.133Z,0.50
2022-08-30T16:11:38.813Z,0.65
2022-08-30T16:14:06.046Z,0.82
2022-08-30T16:16:33.731Z,0.80
2022-08-30T16:19:01.543Z,0.77
2022-08-30T16:21:33.635Z,0.70
2022-08-30T16:24:02.631Z,0.60
2022-08-30T16:26:30.714Z,0.50
2022-08-30T16:28:58.815Z,0.82
2022-08-30T16:31:27.494Z,0.88
2022-08-30T16:33:54.673Z,0.50
2022-08-30T16:36:22.662Z,0.50
2022-08-30T16:38:53.545Z,0.70
2022-08-30T16:41:24.079Z,0.90
2022-08-30T16:43:53.543Z,0.55
2022-08-30T16:46:23.458Z,0.57
2022-08-30T16:48:59.007Z,0.43
2022-08-30T16:51:28.289Z,0.32
2022-08-30T16:54:00.398Z,0.60
2022-08-30T16:56:29.758Z,0.60
2022-08-30T16:59:02.592Z,0.50
2022-08-30T17:01:35.061Z,0.75
2022-08-30T17:04:02.106Z,0.57
2022-08-30T17:06:28.646Z,0.73
2022-08-30T17:08:56.006Z,0.57
2022-08-30T17:11:23.371Z,0.63
2022-08-30T17:13:50.993Z,0.70
2022-08-30T17:16:27.608Z,0.77
2022-08-30T17:18:59.731Z,0.70
2022-08-30T17:21:28.443Z,0.80
2022-08-30T17:23:58.502Z,0.80
2022-08-30T17:26:31.117Z,0.70
2022-08-30T17:28:58.182Z,0.65
2022-08-30T17:31:27.797Z,0.50
2022-08-30T17:34:01.245Z,0.70
2022-08-30T17:36:30.531Z,0.60
2022-08-30T17:38:57.050Z,0.70
2022-08-30T17:41:23.576Z,0.63
2022-08-30T17:43:50.087Z,0.50
2022-08-30T17:46:20.663Z,0.70
2022-08-30T17:48:47.439Z,0.70
2022-08-30T17:51:24.469Z,1.58
2022-08-30T17:53:51.034Z,0.80
2022-08-30T17:56:19.131Z,0.73
2022-08-30T17:58:47.459Z,0.65
2022-08-30T18:01:14.844Z,0.82
2022-08-30T18:03:45.322Z,0.82
2022-08-30T18:06:13.452Z,0.70
2022-08-30T18:08:40.524Z,0.90
2022-08-30T18:11:07.660Z,0.43
2022-08-30T18:13:34.711Z,1.35
2022-08-30T18:16:02.961Z,1.25
2022-08-30T18:18:30.422Z,0.77
2022-08-30T18:20:56.996Z,0.73
2022-08-30T18:23:24.350Z,1.00
2022-08-30T18:25:56.401Z,0.77
2022-08-30T18:28:22.993Z,1.08
2022-08-30T18:30:49.828Z,0.70
2022-08-30T18:33:16.941Z,0.60
2022-08-30T18:35:48.259Z,1.17
2022-08-30T18:38:15.237Z,1.17
2022-08-30T18:40:41.894Z,0.77
2022-08-30T18:43:10.456Z,0.57
2022-08-30T18:45:38.397Z,1.00
2022-08-30T18:48:05.621Z,0.68
2022-08-30T18:50:33.467Z,1.00
2022-08-30T18:53:00.843Z,0.57
2022-08-30T18:55:28.031Z,0.70
2022-08-30T18:57:55.065Z,0.60
2022-08-30T19:00:21.660Z,0.88
2022-08-30T19:02:48.334Z,0.73
2022-08-30T19:05:17.018Z,0.57
2022-08-30T19:07:44.432Z,0.88
2022-08-30T19:10:12.515Z,0.55
2022-08-30T19:12:39.780Z,0.80
2022-08-30T19:15:11.095Z,1.10
2022-08-30T19:17:39.924Z,1.35
2022-08-30T19:20:09.869Z,0.90
2022-08-30T19:23:05.878Z,0.88
2022-08-30T19:25:24.654Z,0.85
2022-08-30T19:27:51.717Z,1.08
2022-08-30T19:30:24.073Z,0.95
2022-08-30T19:32:55.578Z,1.23
2022-08-30T19:35:22.268Z,1.10
2022-08-30T19:37:48.837Z,1.20
2022-08-30T19:40:17.541Z,0.98
2022-08-30T19:42:46.426Z,0.98
2022-08-30T19:45:17.662Z,1.27
2022-08-30T19:47:45.090Z,1.00
2022-08-30T19:50:14.427Z,1.00
2022-08-30T19:52:41.013Z,0.98
2022-08-30T19:55:09.439Z,1.10
2022-08-30T19:57:36.444Z,1.70
2022-08-30T20:00:11.150Z,1.13
2022-08-30T20:02:38.184Z,1.25
2022-08-30T20:05:05.711Z,1.20
2022-08-30T20:07:35.417Z,1.50
2022-08-30T20:10:09.357Z,1.10
2022-08-30T20:12:36.754Z,1.30
2022-08-30T20:15:09.419Z,1.20
2022-08-30T20:18:02.042Z,1.40
2022-08-30T20:20:23.995Z,1.10
2022-08-30T20:22:54.330Z,1.75
2022-08-30T20:25:21.901Z,1.20
2022-08-30T20:27:49.077Z,0.85
2022-08-30T20:30:17.810Z,1.05
2022-08-30T20:32:46.641Z,0.90
2022-08-30T20:35:17.691Z,1.23
2022-08-30T20:37:45.597Z,0.80
2022-08-30T20:40:16.004Z,0.90
2022-08-30T20:42:45.857Z,0.93
2022-08-30T20:45:15.576Z,1.33
2022-08-30T20:47:42.970Z,0.77
2022-08-30T20:50:13.691Z,0.75
2022-08-30T20:52:41.126Z,0.75
2022-08-30T20:55:08.341Z,1.05
2022-08-30T20:57:35.001Z,0.65
2022-08-30T21:00:02.447Z,0.70
2022-08-30T21:02:29.045Z,0.60
2022-08-30T21:04:55.616Z,1.20
2022-08-30T21:07:22.254Z,0.80
2022-08-30T21:09:50.248Z,0.70
2022-08-30T21:12:16.814Z,0.43
2022-08-30T21:14:43.315Z,0.70
2022-08-30T21:17:10.090Z,0.80
2022-08-30T21:19:38.912Z,0.60
2022-08-30T21:22:08.594Z,0.50
2022-08-30T21:24:35.350Z,0.50
2022-08-30T21:27:02.366Z,0.57
2022-08-30T21:29:30.187Z,0.70
2022-08-30T21:31:57.574Z,0.50
2022-08-30T21:34:24.776Z,0.40
2022-08-30T21:36:51.421Z,0.60
2022-08-30T21:39:21.551Z,1.00
2022-08-30T21:41:50.175Z,0.70
2022-08-30T21:44:20.276Z,0.50
2022-08-30T21:46:48.372Z,0.40
2022-08-30T21:49:18.662Z,0.50
2022-08-30T21:51:47.592Z,0.50
2022-08-30T21:54:16.393Z,1.15
2022-08-30T21:56:45.663Z,0.63
2022-08-30T21:59:13.163Z,0.63
2022-08-30T22:01:41.518Z,0.57
2022-08-30T22:04:10.101Z,0.50
2022-08-30T22:06:38.777Z,0.95
2022-08-30T22:09:09.412Z,0.60
2022-08-30T22:11:37.017Z,0.40
2022-08-30T22:14:04.929Z,0.50
2022-08-30T22:16:31.639Z,0.38
2022-08-30T22:18:58.549Z,0.40
2022-08-30T22:21:28.522Z,0.50
2022-08-30T22:23:56.261Z,0.47
2022-08-30T22:26:24.050Z,0.32
2022-08-30T22:28:52.192Z,0.52
2022-08-30T22:31:20.521Z,0.40
2022-08-30T22:33:48.173Z,0.50
2022-08-30T22:36:24.041Z,0.50
2022-08-30T22:39:02.066Z,0.57
2022-08-30T22:41:31.716Z,0.40
2022-08-30T22:43:58.738Z,0.50
2022-08-30T22:46:29.311Z,0.60
2022-08-30T22:49:01.818Z,0.40
2022-08-30T22:51:28.348Z,0.40
2022-08-30T22:53:54.908Z,0.60
2022-08-30T22:56:24.986Z,0.40
2022-08-30T22:58:52.745Z,0.43
2022-08-30T23:01:29.475Z,0.30
2022-08-30T23:03:57.007Z,0.50
2022-08-30T23:06:23.750Z,0.40
2022-08-30T23:08:50.438Z,0.40
2022-08-30T23:11:17.420Z,0.75
2022-08-30T23:13:44.572Z,0.40
2022-08-30T23:16:12.705Z,0.30
2022-08-30T23:18:42.207Z,0.40
2022-08-30T23:21:14.711Z,0.45
2022-08-30T23:23:59.886Z,0.50
2022-08-30T23:26:45.442Z,0.50
2022-08-30T23:29:31.377Z,0.50
2022-08-30T23:32:16.885Z,0.38
2022-08-30T23:35:02.524Z,0.32
2022-08-30T23:37:48.490Z,0.52
2022-08-30T23:40:37.287Z,0.40
2022-08-30T23:43:22.377Z,0.40
2022-08-30T23:46:07.649Z,0.40
2022-08-30T23:48:52.730Z,0.52
2022-08-30T23:51:38.060Z,0.30
2022-08-30T23:57:08.778Z,0.35
2022-08-30T23:59:54.439Z,0.60
